Domov               UVHVVR             MKGP            O straneh              
ZDRAVSTVENO VARSTVO RASTLIN
  MREŽA AGROMET. POSTAJ
 ► PROGNOSTIČNA OBVESTILA
AGROMETEOROLOŠKI PODATKI -
ARSO
OBVLADOVANJE TVEGANJ ZARADI
NEUGODNIH VREMENSKIH RAZMER
  ► NARAVNE NESREČE
  ► SUŠA/MOČA
  ► NAMAKANJE
  ► ŽLED (gozdarstvo)
KARTOGRAFSKI PRIKAZI
SPLETNE POVEZAVE
PROJEKTI IN PUBLIKACIJE

AGROMETEOROLOŠKA MREŽA: VREMENSKE POSTAJE IN FENOLOŠKA OPAZOVANJA

Pregled podatkov za lokacijo Potoče, meteorološka postaja 861648

Pregled senzorjev na lokaciji

ID Ime Zadnja
vrednost
Datum
zadnje
spremembe
Tip
senzorja
4070 Temperatura 2 m ( °C) 25,96 °C 28.6.2017 17:00 50YA
4071 Relativna vlaga 2 m (% RH) 67,07 % RH 28.6.2017 17:00 50YA
4072 Omočenost lista (U) 2 U 28.6.2017 17:00 A730WET
4073 Padavine 0.2 mm (mm) 0 mm 28.6.2017 17:00 Rain-O-Matic

Pregled podatkov zadnjih 24 ur

Zap.
št.
Datum in čas Potoče
Omočenost
lista
Padavine
0.2
mm
Relativna
vlaga
2
m
Temperatura
2
m
0 28.6.2017 16:00 2 0 67,07 25,96
1 28.6.2017 15:30 0 0 57,17 27,91
2 28.6.2017 15:00 0 0 63,56 27,66
3 28.6.2017 14:30 0 0 61,55 28,74
4 28.6.2017 14:00 0 0 67,1 27,63
5 28.6.2017 13:30 0 0 61,82 27,96
6 28.6.2017 13:00 0 0 61,92 27
7 28.6.2017 12:30 0 0 58,5 27,18
8 28.6.2017 12:00 0 0 60,83 25,47
9 28.6.2017 11:30 0 0 59,67 27,91
10 28.6.2017 11:00 0 0 62,73 28,69
11 28.6.2017 10:30 0 0 61,04 29,18
12 28.6.2017 10:00 0 0 67,15 28,05
13 28.6.2017 09:30 0 0 70,98 26,79
14 28.6.2017 09:00 0 0 71,77 25,42
15 28.6.2017 08:30 0 0 75,44 24,27
16 28.6.2017 08:00 0 0 89,61 22,17
17 28.6.2017 07:30 1 0 98,23 20,83
18 28.6.2017 07:00 10 0 99,29 20,12
19 28.6.2017 06:30 10 0 99,37 19,64
20 28.6.2017 06:00 10 0 99,4 19,31
21 28.6.2017 05:30 10 0 99,4 19,06
22 28.6.2017 05:00 10 0 99,24 18,46
23 28.6.2017 04:30 10 0 99,14 18,47
24 28.6.2017 04:00 9 0 99,06 18,32
25 28.6.2017 03:30 9 0 98,8 17,64
26 28.6.2017 03:00 8 0 98,47 17,34
27 28.6.2017 02:30 8 0 98,63 18,07
28 28.6.2017 02:00 8 0 98,65 18,35
29 28.6.2017 01:30 7 0 98,54 18,33
30 28.6.2017 01:00 6 0 98,39 18,23
31 28.6.2017 00:30 5 0 98,08 18,23
32 28.6.2017 00:00 5 0 98,02 18,59
33 27.6.2017 23:30 4 0 97,75 18,48
34 27.6.2017 23:00 3 0 97,11 18,32
35 27.6.2017 22:30 2 0 96,38 18,17
36 27.6.2017 22:00 1 0 94,78 18,05
37 27.6.2017 21:30 0 0 93,43 18,51
38 27.6.2017 21:00 0 0 91,83 19,42
39 27.6.2017 20:30 0 0 87,79 20,65
40 27.6.2017 20:00 0 0 79,62 22,93
41 27.6.2017 19:30 0 0 73,18 25,47
42 27.6.2017 19:00 0 0 66,33 27,52
43 27.6.2017 18:30 0 0 64,01 27,77
44 27.6.2017 18:00 0 0 64,24 27,7
© 2011 Ministrstvo za kmetijstvo, gozdarstvo in prehrano. Vse pravice pridržane.